Time;durP1;ratioP1;P1;durP2;ratioP2;P2;SDS_P1;SDS_P2;PMS_P1;PMS_P2;Temp;Humidity;BMP_temperature;BMP_pressure;BME280_temperature;BME280_humidity;BME280_pressure;Samples;Min_cycle;Max_cycle;Signal;HPM_P1;HPM_P2
2021/06/04 00:02:01;;;;;;;5.95;4.55;;;;;;;;;;5037224;28;20038;-61
2021/06/04 00:04:27;;;;;;;5.80;4.75;;;;;;;;;;5036276;28;20041;-61
2021/06/04 00:06:53;;;;;;;6.40;4.80;;;;;;;;;;5034796;28;20033;-61
2021/06/04 00:09:19;;;;;;;6.50;5.03;;;;;;;;;;5034771;28;20032;-61
2021/06/04 00:11:50;;;;;;;5.70;4.80;;;;;;;;;;5030730;28;20484;-61
2021/06/04 00:14:19;;;;;;;6.78;4.60;;;;;;;;;;5034994;28;20036;-61
2021/06/04 00:16:47;;;;;;;6.50;4.80;;;;;;;;;;5035711;28;20056;-61
2021/06/04 00:19:14;;;;;;;5.55;4.60;;;;;;;;;;5034196;28;20033;-61
2021/06/04 00:21:46;;;;;;;6.28;4.47;;;;;;;;;;5034253;28;20105;-61
2021/06/04 00:24:13;;;;;;;6.57;4.50;;;;;;;;;;5034465;28;20037;-61
2021/06/04 00:26:41;;;;;;;6.22;4.30;;;;;;;;;;5029865;28;20060;-61
2021/06/04 00:29:07;;;;;;;5.57;4.00;;;;;;;;;;5037420;28;20029;-61
2021/06/04 00:31:33;;;;;;;6.70;5.05;;;;;;;;;;5032968;28;20689;-61
2021/06/04 00:33:59;;;;;;;6.63;4.72;;;;;;;;;;5032851;28;20029;-61
2021/06/04 00:36:25;;;;;;;10.90;4.80;;;;;;;;;;5034079;28;20040;-61
2021/06/04 00:38:55;;;;;;;5.65;4.78;;;;;;;;;;5031220;28;20445;-61
2021/06/04 00:41:26;;;;;;;6.15;4.85;;;;;;;;;;5033187;28;20026;-61
2021/06/04 00:43:52;;;;;;;5.72;4.57;;;;;;;;;;5035944;28;20091;-61
2021/06/04 00:46:19;;;;;;;8.07;4.93;;;;;;;;;;5034091;28;20489;-61
2021/06/04 00:48:44;;;;;;;5.65;4.50;;;;;;;;;;5033903;28;20026;-61
2021/06/04 00:51:19;;;;;;;6.63;4.60;;;;;;;;;;5033688;28;20513;-61
2021/06/04 00:53:45;;;;;;;8.00;4.68;;;;;;;;;;5015345;28;20030;-61
2021/06/04 00:56:12;;;;;;;6.53;5.05;;;;;;;;;;5035388;28;20030;-61
2021/06/04 00:58:40;;;;;;;7.07;4.50;;;;;;;;;;5034206;28;20029;-61
2021/06/04 01:01:06;;;;;;;7.25;5.07;;;;;;;;;;5033730;28;20057;-61
2021/06/04 01:03:34;;;;;;;6.40;4.63;;;;;;;;;;5033395;28;20035;-61
2021/06/04 01:06:06;;;;;;;6.90;4.53;;;;;;;;;;5031410;28;20523;-61
2021/06/04 01:08:38;;;;;;;5.97;4.60;;;;;;;;;;5030793;28;20040;-61
2021/06/04 01:11:16;;;;;;;7.25;4.57;;;;;;;;;;5037090;28;20036;-61
2021/06/04 01:14:03;;;;;;;6.38;4.50;;;;;;;;;;5036255;28;20432;-61
2021/06/04 01:16:29;;;;;;;5.17;4.17;;;;;;;;;;5033479;28;20051;-61
2021/06/04 01:18:56;;;;;;;6.70;4.85;;;;;;;;;;5032378;28;20350;-61
2021/06/04 01:21:29;;;;;;;7.50;4.75;;;;;;;;;;5033168;28;20033;-61
2021/06/04 01:23:59;;;;;;;5.72;4.35;;;;;;;;;;5031002;28;20029;-61
2021/06/04 01:26:34;;;;;;;7.00;4.93;;;;;;;;;;5031978;28;20381;-61
2021/06/04 01:29:04;;;;;;;6.95;4.63;;;;;;;;;;5036152;28;20025;-61
2021/06/04 01:31:46;;;;;;;8.13;4.97;;;;;;;;;;5032820;28;20025;-61
2021/06/04 01:34:30;;;;;;;5.93;4.82;;;;;;;;;;5033044;28;20075;-61
2021/06/04 01:37:19;;;;;;;8.05;4.97;;;;;;;;;;5032667;28;20037;-61
2021/06/04 01:39:50;;;;;;;6.95;4.60;;;;;;;;;;5032544;28;20046;-61
2021/06/04 01:42:19;;;;;;;6.90;4.97;;;;;;;;;;5032623;28;20035;-61
2021/06/04 01:44:53;;;;;;;8.13;4.75;;;;;;;;;;5029574;28;20033;-61
2021/06/04 01:47:24;;;;;;;6.38;4.90;;;;;;;;;;5032912;28;20394;-61
2021/06/04 01:49:53;;;;;;;5.95;4.72;;;;;;;;;;5034263;28;20026;-61
2021/06/04 01:52:24;;;;;;;7.20;4.93;;;;;;;;;;5032383;28;20036;-61
2021/06/04 01:54:53;;;;;;;6.03;4.60;;;;;;;;;;5032446;28;20021;-61
2021/06/04 01:57:22;;;;;;;6.07;4.72;;;;;;;;;;5032576;28;20041;-61
2021/06/04 01:59:51;;;;;;;5.90;5.00;;;;;;;;;;5029588;28;20429;-61
2021/06/04 02:02:17;;;;;;;5.68;4.90;;;;;;;;;;5032701;28;20056;-61
2021/06/04 02:04:45;;;;;;;6.10;4.70;;;;;;;;;;5033607;28;20100;-61
2021/06/04 02:07:13;;;;;;;8.02;4.82;;;;;;;;;;5032453;28;20030;-61
2021/06/04 02:09:39;;;;;;;6.15;4.75;;;;;;;;;;5032100;28;20404;-61
2021/06/04 02:12:06;;;;;;;8.75;5.35;;;;;;;;;;5031994;28;20033;-61
2021/06/04 02:14:36;;;;;;;7.97;5.20;;;;;;;;;;5029436;28;20014;-61
2021/06/04 02:17:05;;;;;;;9.63;5.50;;;;;;;;;;5035197;28;20037;-61
2021/06/04 02:19:47;;;;;;;7.25;5.00;;;;;;;;;;5032178;28;20037;-61
2021/06/04 02:22:18;;;;;;;7.18;5.05;;;;;;;;;;5032163;28;20111;-61
2021/06/04 02:25:07;;;;;;;6.70;4.90;;;;;;;;;;5032427;28;20469;-61
2021/06/04 02:27:42;;;;;;;6.68;4.68;;;;;;;;;;5024375;28;20409;-61
2021/06/04 02:30:24;;;;;;;5.25;4.68;;;;;;;;;;5031217;28;20024;-61
2021/06/04 02:33:05;;;;;;;6.15;4.70;;;;;;;;;;5015719;28;20083;-61
2021/06/04 02:35:34;;;;;;;8.23;4.60;;;;;;;;;;5029691;28;20034;-61
2021/06/04 02:38:03;;;;;;;6.63;4.50;;;;;;;;;;5033736;28;20409;-61
2021/06/04 02:40:31;;;;;;;6.18;4.78;;;;;;;;;;5031802;28;20021;-61
2021/06/04 02:43:04;;;;;;;10.18;5.15;;;;;;;;;;5031897;28;20025;-61
2021/06/04 02:45:38;;;;;;;6.13;4.75;;;;;;;;;;5032364;28;20029;-61
2021/06/04 02:48:12;;;;;;;7.00;5.10;;;;;;;;;;5031466;28;20028;-61
2021/06/04 02:50:46;;;;;;;6.45;5.40;;;;;;;;;;5012292;28;20473;-61
2021/06/04 02:53:23;;;;;;;6.32;4.88;;;;;;;;;;5043119;28;20024;-61
2021/06/04 02:56:13;;;;;;;7.70;5.55;;;;;;;;;;5032141;28;20026;-61
2021/06/04 02:58:40;;;;;;;7.72;5.05;;;;;;;;;;5023997;28;20048;-61
2021/06/04 03:01:07;;;;;;;7.93;5.45;;;;;;;;;;5032229;28;20028;-61
2021/06/04 03:03:34;;;;;;;10.10;5.27;;;;;;;;;;5032055;28;20374;-61
2021/06/04 03:06:00;;;;;;;7.07;5.60;;;;;;;;;;5030299;28;20028;-61
2021/06/04 03:08:27;;;;;;;7.32;5.47;;;;;;;;;;5030560;28;20032;-61
2021/06/04 03:10:54;;;;;;;7.00;5.80;;;;;;;;;;5034356;28;20014;-61
2021/06/04 03:13:24;;;;;;;7.43;5.97;;;;;;;;;;5031724;28;20424;-61
2021/06/04 03:15:52;;;;;;;9.60;5.80;;;;;;;;;;5031747;28;20022;-61
2021/06/04 03:18:21;;;;;;;8.27;5.93;;;;;;;;;;5031869;28;20509;-64
2021/06/04 03:20:47;;;;;;;6.78;5.63;;;;;;;;;;5028503;28;20064;-64
2021/06/04 03:23:15;;;;;;;7.32;5.25;;;;;;;;;;5036609;28;20029;-64
2021/06/04 03:25:42;;;;;;;6.68;4.80;;;;;;;;;;5038131;28;20036;-64
2021/06/04 03:28:12;;;;;;;6.43;5.30;;;;;;;;;;5035224;28;20021;-64
2021/06/04 03:30:41;;;;;;;7.47;5.53;;;;;;;;;;5035245;28;20114;-64
2021/06/04 03:33:07;;;;;;;6.18;4.70;;;;;;;;;;5034785;28;20021;-64
2021/06/04 03:35:33;;;;;;;6.65;5.20;;;;;;;;;;5031690;28;20362;-64
2021/06/04 03:38:00;;;;;;;6.72;5.18;;;;;;;;;;5036404;28;20061;-64
2021/06/04 03:40:28;;;;;;;6.95;5.07;;;;;;;;;;5035108;28;20465;-64
2021/06/04 03:42:54;;;;;;;6.07;5.28;;;;;;;;;;5034066;28;20029;-64
2021/06/04 03:45:25;;;;;;;7.18;5.43;;;;;;;;;;5034776;28;20020;-64
2021/06/04 03:47:51;;;;;;;6.97;5.90;;;;;;;;;;5032485;28;20677;-64
2021/06/04 03:50:17;;;;;;;7.57;6.05;;;;;;;;;;5035482;28;20383;-64
2021/06/04 03:52:43;;;;;;;8.68;6.45;;;;;;;;;;5035821;28;20040;-64
2021/06/04 03:55:11;;;;;;;7.85;5.50;;;;;;;;;;5034547;28;20017;-64
2021/06/04 03:57:38;;;;;;;7.40;6.25;;;;;;;;;;5034729;28;20040;-64
2021/06/04 04:00:10;;;;;;;8.48;6.30;;;;;;;;;;5034105;28;20024;-64
2021/06/04 04:02:36;;;;;;;9.32;6.75;;;;;;;;;;5030762;28;20037;-64
2021/06/04 04:05:02;;;;;;;8.18;6.60;;;;;;;;;;5037623;28;20095;-63
2021/06/04 04:07:29;;;;;;;9.02;7.10;;;;;;;;;;5034389;28;20056;-64
2021/06/04 04:09:56;;;;;;;9.02;6.70;;;;;;;;;;5034849;28;20025;-64
2021/06/04 04:12:22;;;;;;;9.00;6.80;;;;;;;;;;5034724;28;20054;-64
2021/06/04 04:14:48;;;;;;;9.60;6.85;;;;;;;;;;5031195;28;20026;-64
2021/06/04 04:17:14;;;;;;;6.85;5.55;;;;;;;;;;5035013;28;20048;-64
2021/06/04 04:19:40;;;;;;;7.97;5.20;;;;;;;;;;5035791;28;20108;-64
2021/06/04 04:22:07;;;;;;;7.60;5.20;;;;;;;;;;5034525;28;20086;-64
2021/06/04 04:24:34;;;;;;;8.10;5.95;;;;;;;;;;5034335;28;20033;-64
2021/06/04 04:27:01;;;;;;;8.80;6.28;;;;;;;;;;5032408;28;20151;-64
2021/06/04 04:29:27;;;;;;;7.47;5.65;;;;;;;;;;5032825;28;20029;-64
2021/06/04 04:31:56;;;;;;;7.75;5.70;;;;;;;;;;5035968;28;20032;-64
2021/06/04 04:34:23;;;;;;;7.57;5.28;;;;;;;;;;5033230;28;20051;-64
2021/06/04 04:36:52;;;;;;;7.07;5.20;;;;;;;;;;5033882;28;20116;-64
2021/06/04 04:39:20;;;;;;;6.25;4.90;;;;;;;;;;5033642;28;20120;-64
2021/06/04 04:41:46;;;;;;;;;;;;;;;;;;5031297;28;20033;-64
2021/06/04 04:44:13;;;;;;;6.55;4.95;;;;;;;;;;5035841;28;19909;-64
2021/06/04 04:46:39;;;;;;;6.28;4.65;;;;;;;;;;5034478;28;20083;-64
2021/06/04 04:49:05;;;;;;;7.45;4.68;;;;;;;;;;5033616;28;20018;-63
2021/06/04 04:51:32;;;;;;;6.15;5.35;;;;;;;;;;5033552;28;20035;-63
2021/06/04 04:53:58;;;;;;;6.43;5.30;;;;;;;;;;5031962;28;20049;-64
2021/06/04 04:56:24;;;;;;;7.38;5.18;;;;;;;;;;5033196;28;20445;-64
2021/06/04 04:58:51;;;;;;;7.25;5.10;;;;;;;;;;5035350;28;20056;-64
2021/06/04 05:01:17;;;;;;;8.13;5.05;;;;;;;;;;5032793;28;20068;-64
2021/06/04 05:03:44;;;;;;;6.47;4.90;;;;;;;;;;5033303;28;20097;-64
2021/06/04 05:06:10;;;;;;;6.25;4.93;;;;;;;;;;5033119;28;20389;-64
2021/06/04 05:08:36;;;;;;;6.95;4.72;;;;;;;;;;5029463;28;20485;-64
2021/06/04 05:11:03;;;;;;;9.88;4.75;;;;;;;;;;5036865;28;20155;-64
2021/06/04 05:13:29;;;;;;;6.25;4.50;;;;;;;;;;5033417;28;20147;-64
2021/06/04 05:15:55;;;;;;;8.10;4.85;;;;;;;;;;5032980;28;20025;-64
2021/06/04 05:18:21;;;;;;;6.72;4.43;;;;;;;;;;5032989;28;20044;-64
2021/06/04 05:20:48;;;;;;;6.03;4.53;;;;;;;;;;5029724;28;20022;-64
2021/06/04 05:23:16;;;;;;;6.97;4.55;;;;;;;;;;5034406;28;20021;-64
2021/06/04 05:25:44;;;;;;;5.95;4.25;;;;;;;;;;5035831;28;20025;-64
2021/06/04 05:28:13;;;;;;;7.40;4.60;;;;;;;;;;5033006;28;20172;-64
2021/06/04 05:30:40;;;;;;;5.10;4.35;;;;;;;;;;5032611;28;20131;-64
2021/06/04 05:33:08;;;;;;;9.18;4.88;;;;;;;;;;5032792;28;20029;-64
2021/06/04 05:35:34;;;;;;;6.18;4.47;;;;;;;;;;5029976;28;20030;-64
2021/06/04 05:38:00;;;;;;;8.82;5.18;;;;;;;;;;5035884;28;20056;-64
2021/06/04 05:40:31;;;;;;;6.65;4.85;;;;;;;;;;5032680;28;20045;-64
2021/06/04 05:42:57;;;;;;;5.68;4.30;;;;;;;;;;5032584;28;20487;-64
2021/06/04 05:45:25;;;;;;;7.43;4.32;;;;;;;;;;5032595;28;20029;-64
2021/06/04 05:47:51;;;;;;;6.43;3.92;;;;;;;;;;5030171;28;20105;-64
2021/06/04 05:50:20;;;;;;;6.70;4.28;;;;;;;;;;5033381;28;20025;-64
2021/06/04 05:52:46;;;;;;;7.03;4.53;;;;;;;;;;5033601;28;20033;-64
2021/06/04 05:55:14;;;;;;;5.95;4.55;;;;;;;;;;5032305;28;20396;-64
2021/06/04 05:57:41;;;;;;;6.80;4.57;;;;;;;;;;5032809;28;20112;-64
2021/06/04 06:00:11;;;;;;;5.13;4.00;;;;;;;;;;5031840;28;20445;-63
2021/06/04 06:02:37;;;;;;;6.10;4.85;;;;;;;;;;5012704;28;20034;-64
2021/06/04 06:05:04;;;;;;;6.45;4.85;;;;;;;;;;5035783;28;20531;-64
2021/06/04 06:07:30;;;;;;;5.10;4.00;;;;;;;;;;5032737;28;20044;-64
2021/06/04 06:09:56;;;;;;;7.00;4.80;;;;;;;;;;5032636;28;20418;-64
2021/06/04 06:12:22;;;;;;;8.10;5.40;;;;;;;;;;5032796;28;20155;-64
2021/06/04 06:14:48;;;;;;;6.82;4.10;;;;;;;;;;5028789;28;20018;-64
2021/06/04 06:17:14;;;;;;;4.90;3.92;;;;;;;;;;5033138;28;20049;-64
2021/06/04 06:19:40;;;;;;;8.60;4.70;;;;;;;;;;5033655;28;20476;-64
2021/06/04 06:22:06;;;;;;;6.28;3.97;;;;;;;;;;5032444;28;20024;-64
2021/06/04 06:24:32;;;;;;;5.57;4.13;;;;;;;;;;5032246;28;20032;-64
2021/06/04 06:26:58;;;;;;;5.28;4.00;;;;;;;;;;5030355;28;20026;-64
2021/06/04 06:29:24;;;;;;;5.47;3.95;;;;;;;;;;5031616;28;20021;-64
2021/06/04 06:31:50;;;;;;;6.97;3.92;;;;;;;;;;5033825;28;20025;-64
2021/06/04 06:34:16;;;;;;;7.32;4.07;;;;;;;;;;5032249;28;20219;-64
2021/06/04 06:36:43;;;;;;;6.68;3.90;;;;;;;;;;5031891;28;20053;-64
2021/06/04 06:39:14;;;;;;;6.05;3.90;;;;;;;;;;5031672;28;20190;-64
2021/06/04 06:41:41;;;;;;;6.43;3.65;;;;;;;;;;5012848;28;20531;-64
2021/06/04 06:44:09;;;;;;;5.38;3.80;;;;;;;;;;5035212;28;20022;-64
2021/06/04 06:46:35;;;;;;;10.00;4.10;;;;;;;;;;5033941;28;20033;-64
2021/06/04 06:49:01;;;;;;;7.20;4.05;;;;;;;;;;5032256;28;20083;-64
2021/06/04 06:51:27;;;;;;;7.10;4.20;;;;;;;;;;5031340;28;20021;-64
2021/06/04 06:53:53;;;;;;;4.63;3.42;;;;;;;;;;5029635;28;20072;-64
2021/06/04 06:56:20;;;;;;;7.15;3.90;;;;;;;;;;5033158;28;20404;-64
2021/06/04 06:58:46;;;;;;;4.57;3.72;;;;;;;;;;5036670;28;20389;-64
2021/06/04 07:01:13;;;;;;;6.20;3.00;;;;;;;;;;5035794;28;20083;-64
2021/06/04 07:03:39;;;;;;;6.90;3.70;;;;;;;;;;5035472;28;20037;-64
2021/06/04 07:06:08;;;;;;;4.82;3.25;;;;;;;;;;5035275;28;20074;-64
2021/06/04 07:08:34;;;;;;;5.72;3.33;;;;;;;;;;5032496;28;20022;-64
2021/06/04 07:11:02;;;;;;;5.05;3.63;;;;;;;;;;5038735;28;20049;-64
2021/06/04 07:13:28;;;;;;;4.78;3.65;;;;;;;;;;5035032;28;20030;-65
2021/06/04 07:15:58;;;;;;;6.63;3.60;;;;;;;;;;5035265;28;20021;-65
2021/06/04 07:18:24;;;;;;;4.47;3.58;;;;;;;;;;5035531;28;20037;-64
2021/06/04 07:20:51;;;;;;;4.85;3.70;;;;;;;;;;5032922;28;20540;-64
2021/06/04 07:23:18;;;;;;;5.78;3.45;;;;;;;;;;5036305;28;20416;-64
2021/06/04 07:25:46;;;;;;;5.97;3.67;;;;;;;;;;5036562;28;20072;-64
2021/06/04 07:28:13;;;;;;;5.38;3.30;;;;;;;;;;5035280;28;20075;-64
2021/06/04 07:30:41;;;;;;;6.35;3.38;;;;;;;;;;5035195;28;20036;-64
2021/06/04 07:33:07;;;;;;;;;;;;;;;;;;5035284;28;20025;-65
2021/06/04 07:35:34;;;;;;;6.93;3.47;;;;;;;;;;5032545;28;20025;-65
2021/06/04 07:38:00;;;;;;;4.95;3.20;;;;;;;;;;5038274;28;20068;-65
2021/06/04 07:40:28;;;;;;;5.28;3.28;;;;;;;;;;5034459;28;20026;-64
2021/06/04 07:42:54;;;;;;;5.43;3.05;;;;;;;;;;5035155;28;20037;-64
2021/06/04 07:45:22;;;;;;;4.40;2.90;;;;;;;;;;5035229;28;20021;-64
2021/06/04 07:47:48;;;;;;;;;;;;;;;;;;5032367;28;20469;-64
2021/06/04 07:50:15;;;;;;;4.65;3.15;;;;;;;;;;5035754;28;19950;-64
2021/06/04 07:52:41;;;;;;;5.90;3.28;;;;;;;;;;5037353;28;20044;-64
2021/06/04 07:55:08;;;;;;;3.97;3.03;;;;;;;;;;5034857;28;20033;-64
2021/06/04 07:57:34;;;;;;;4.90;3.17;;;;;;;;;;5034971;28;20116;-64
2021/06/04 08:00:00;;;;;;;6.10;3.40;;;;;;;;;;5032914;28;20573;-64
2021/06/04 08:02:26;;;;;;;4.90;3.25;;;;;;;;;;5033739;28;20029;-64
2021/06/04 08:04:52;;;;;;;5.20;3.38;;;;;;;;;;5036756;28;20390;-64
2021/06/04 08:07:19;;;;;;;4.22;3.10;;;;;;;;;;5034191;28;20032;-64
2021/06/04 08:09:45;;;;;;;6.60;3.45;;;;;;;;;;5033032;28;20097;-64
2021/06/04 08:12:15;;;;;;;6.28;3.70;;;;;;;;;;5034675;28;20531;-64
2021/06/04 08:14:41;;;;;;;5.28;3.60;;;;;;;;;;5015183;28;20025;-64
2021/06/04 08:17:07;;;;;;;7.88;3.50;;;;;;;;;;5037346;28;20072;-64
2021/06/04 08:19:34;;;;;;;6.05;3.30;;;;;;;;;;5034583;28;20056;-64
2021/06/04 08:22:01;;;;;;;5.68;3.47;;;;;;;;;;5034179;28;20069;-64
2021/06/04 08:24:29;;;;;;;4.93;3.40;;;;;;;;;;5034103;28;20203;-64
2021/06/04 08:26:55;;;;;;;5.00;3.95;;;;;;;;;;5032099;28;20099;-64
2021/06/04 08:29:22;;;;;;;7.45;3.67;;;;;;;;;;5034410;28;20539;-64
2021/06/04 08:31:48;;;;;;;5.15;3.63;;;;;;;;;;5035417;28;20026;-64
2021/06/04 08:34:14;;;;;;;5.50;3.83;;;;;;;;;;5034166;28;20488;-64
2021/06/04 08:36:42;;;;;;;5.75;3.83;;;;;;;;;;5033731;28;20060;-65
2021/06/04 08:39:16;;;;;;;5.63;3.95;;;;;;;;;;5033444;28;20049;-65
2021/06/04 08:41:45;;;;;;;5.43;3.80;;;;;;;;;;5014764;28;20036;-64
2021/06/04 08:44:30;;;;;;;5.75;3.47;;;;;;;;;;5036081;28;20033;-64
2021/06/04 08:47:01;;;;;;;4.72;3.70;;;;;;;;;;5036022;28;20106;-64
2021/06/04 08:49:30;;;;;;;6.75;3.60;;;;;;;;;;5033688;28;20581;-64
2021/06/04 08:51:56;;;;;;;4.47;3.40;;;;;;;;;;5033970;28;20053;-64
2021/06/04 08:54:39;;;;;;;5.35;3.65;;;;;;;;;;5033466;28;20059;-64
2021/06/04 08:57:17;;;;;;;4.72;3.42;;;;;;;;;;5032803;28;20453;-64
2021/06/04 08:59:44;;;;;;;4.95;3.58;;;;;;;;;;5014485;28;20485;-65
2021/06/04 09:02:22;;;;;;;4.28;3.58;;;;;;;;;;5035688;28;20500;-65
2021/06/04 09:04:48;;;;;;;;;;;;;;;;;;5037537;28;20038;-64
2021/06/04 09:07:23;;;;;;;5.57;3.95;;;;;;;;;;5033168;28;20361;-64
2021/06/04 09:09:52;;;;;;;7.20;3.47;;;;;;;;;;5033193;28;20025;-64
2021/06/04 09:12:20;;;;;;;4.45;3.35;;;;;;;;;;5033453;28;20029;-64
2021/06/04 09:14:47;;;;;;;5.03;3.50;;;;;;;;;;5029296;28;20030;-64
2021/06/04 09:17:22;;;;;;;5.15;3.45;;;;;;;;;;5035021;28;20037;-64
2021/06/04 09:19:48;;;;;;;7.15;3.40;;;;;;;;;;5036432;28;20377;-64
2021/06/04 09:22:14;;;;;;;9.88;3.40;;;;;;;;;;5032690;28;20029;-65
2021/06/04 09:24:41;;;;;;;4.10;3.50;;;;;;;;;;5033213;28;20029;-65
2021/06/04 09:27:24;;;;;;;7.28;3.65;;;;;;;;;;5032457;28;20029;-65
2021/06/04 09:30:09;;;;;;;5.80;3.60;;;;;;;;;;5016230;28;20466;-65
2021/06/04 09:32:35;;;;;;;3.80;3.25;;;;;;;;;;5029715;28;20026;-65
2021/06/04 09:35:08;;;;;;;4.20;3.20;;;;;;;;;;5035823;28;20021;-65
2021/06/04 09:37:37;;;;;;;5.93;3.30;;;;;;;;;;5032801;28;20041;-65
2021/06/04 09:40:18;;;;;;;4.78;3.30;;;;;;;;;;5033275;28;20477;-65
2021/06/04 09:42:49;;;;;;;5.07;3.30;;;;;;;;;;5032665;28;20067;-66
2021/06/04 09:45:21;;;;;;;5.60;3.42;;;;;;;;;;5032732;28;20032;-65
2021/06/04 09:47:59;;;;;;;6.40;3.35;;;;;;;;;;5028972;28;20021;-65
2021/06/04 09:50:25;;;;;;;;;;;;;;;;;;5032660;28;20449;-65
2021/06/04 09:53:02;;;;;;;3.30;3.00;;;;;;;;;;5034083;28;19947;-65
2021/06/04 09:55:30;;;;;;;4.28;3.40;;;;;;;;;;5032428;28;20036;-66
2021/06/04 09:57:59;;;;;;;4.70;3.50;;;;;;;;;;5032269;28;20037;-65
2021/06/04 10:00:26;;;;;;;3.67;3.08;;;;;;;;;;5032312;28;20465;-65
2021/06/04 10:02:52;;;;;;;;;;;;;;;;;;5030290;28;20022;-65
2021/06/04 10:05:30;;;;;;;3.63;3.30;;;;;;;;;;5033033;28;20364;-64
2021/06/04 10:08:01;;;;;;;5.18;3.20;;;;;;;;;;5034717;28;20052;-64
2021/06/04 10:10:32;;;;;;;4.25;3.30;;;;;;;;;;5032386;28;20029;-64
2021/06/04 10:13:01;;;;;;;3.78;3.03;;;;;;;;;;5032094;28;20029;-64
2021/06/04 10:15:31;;;;;;;4.78;2.95;;;;;;;;;;5032677;28;20095;-64
2021/06/04 10:20:46;;;;;;;3.50;3.00;;;;;;;;;;5031544;28;20061;-64
2021/06/04 10:23:14;;;;;;;4.60;3.00;;;;;;;;;;5034408;28;20022;-64
2021/06/04 10:25:52;;;;;;;5.30;3.30;;;;;;;;;;5032799;28;20029;-64
2021/06/04 10:28:27;;;;;;;4.07;3.00;;;;;;;;;;5032273;28;20021;-64
2021/06/04 10:30:53;;;;;;;3.40;3.08;;;;;;;;;;5032442;28;20492;-64
2021/06/04 10:33:28;;;;;;;6.20;3.47;;;;;;;;;;5036033;28;20067;-66
2021/06/04 10:35:59;;;;;;;4.43;3.20;;;;;;;;;;5033846;28;20034;-66
2021/06/04 10:38:28;;;;;;;5.78;3.30;;;;;;;;;;5033896;28;20054;-64
2021/06/04 10:40:58;;;;;;;4.18;3.25;;;;;;;;;;5038365;28;20030;-63
2021/06/04 10:43:44;;;;;;;3.83;3.17;;;;;;;;;;5035584;28;20025;-64
2021/06/04 10:46:20;;;;;;;4.43;3.30;;;;;;;;;;5035838;28;20420;-66
2021/06/04 10:49:05;;;;;;;4.95;3.08;;;;;;;;;;5036029;28;20025;-66
2021/06/04 10:51:50;;;;;;;8.40;3.53;;;;;;;;;;5036313;28;20029;-66
2021/06/04 10:54:18;;;;;;;7.05;3.47;;;;;;;;;;5035712;28;20048;-63
2021/06/04 10:56:56;;;;;;;5.10;3.38;;;;;;;;;;5032317;28;20053;-63
2021/06/04 10:59:45;;;;;;;4.70;3.28;;;;;;;;;;5035681;28;20108;-66
2021/06/04 11:02:34;;;;;;;5.05;3.70;;;;;;;;;;5030386;28;20030;-65
2021/06/04 11:05:26;;;;;;;7.20;3.65;;;;;;;;;;5038849;28;20397;-65
2021/06/04 11:08:09;;;;;;;6.97;3.75;;;;;;;;;;5037473;28;20034;-65
2021/06/04 11:10:43;;;;;;;4.68;3.72;;;;;;;;;;5036302;28;20485;-65
2021/06/04 11:13:09;;;;;;;6.80;4.32;;;;;;;;;;5035760;28;20469;-65
2021/06/04 11:15:50;;;;;;;8.82;4.55;;;;;;;;;;5034537;28;20036;-65
2021/06/04 11:18:30;;;;;;;6.07;4.50;;;;;;;;;;5034605;28;20536;-65
2021/06/04 11:20:57;;;;;;;7.72;4.22;;;;;;;;;;5033691;28;20088;-65
2021/06/04 11:23:38;;;;;;;7.38;4.40;;;;;;;;;;5035491;28;20029;-66
2021/06/04 11:26:12;;;;;;;6.05;4.70;;;;;;;;;;5038588;28;20104;-65
2021/06/04 11:28:46;;;;;;;6.80;4.60;;;;;;;;;;5036072;28;20025;-65
2021/06/04 11:31:18;;;;;;;6.55;4.50;;;;;;;;;;5035149;28;20029;-65
2021/06/04 11:33:48;;;;;;;5.30;4.28;;;;;;;;;;5034839;28;20024;-65
2021/06/04 11:36:14;;;;;;;5.65;4.40;;;;;;;;;;5035198;28;20047;-65
2021/06/04 11:38:49;;;;;;;7.82;4.65;;;;;;;;;;5031070;28;20454;-65
2021/06/04 11:41:18;;;;;;;6.88;4.93;;;;;;;;;;5045069;28;20099;-65
2021/06/04 11:43:46;;;;;;;4.63;4.05;;;;;;;;;;5036720;28;20087;-65
2021/06/04 11:46:15;;;;;;;5.32;4.25;;;;;;;;;;5036564;28;20480;-65
2021/06/04 11:48:42;;;;;;;5.72;4.72;;;;;;;;;;5034802;28;20185;-65
2021/06/04 11:51:18;;;;;;;6.55;4.32;;;;;;;;;;5034879;28;20023;-65
2021/06/04 11:53:44;;;;;;;6.40;4.70;;;;;;;;;;5016061;28;20029;-66
2021/06/04 11:56:12;;;;;;;6.30;4.68;;;;;;;;;;5037161;28;20052;-65
2021/06/04 11:58:43;;;;;;;5.60;4.40;;;;;;;;;;5034838;28;20055;-65
2021/06/04 12:01:35;;;;;;;8.98;4.45;;;;;;;;;;5034742;28;20076;-66
2021/06/04 12:04:01;;;;;;;10.68;4.30;;;;;;;;;;5013433;28;20084;-64
2021/06/04 12:06:27;;;;;;;5.93;4.32;;;;;;;;;;5034767;28;20056;-66
2021/06/04 12:08:58;;;;;;;8.82;4.95;;;;;;;;;;5031430;28;20036;-65
2021/06/04 12:11:28;;;;;;;6.07;4.60;;;;;;;;;;5034543;28;20033;-65
2021/06/04 12:13:55;;;;;;;7.28;4.43;;;;;;;;;;5036545;28;20104;-65
2021/06/04 12:16:30;;;;;;;6.03;4.45;;;;;;;;;;5034035;28;20087;-65
2021/06/04 12:19:22;;;;;;;6.95;4.43;;;;;;;;;;5034428;28;20029;-65
2021/06/04 12:21:48;;;;;;;6.15;4.10;;;;;;;;;;5033871;28;20511;-65
2021/06/04 12:24:20;;;;;;;6.13;4.45;;;;;;;;;;5034419;28;20104;-65
2021/06/04 12:26:46;;;;;;;7.38;4.15;;;;;;;;;;5030606;28;20021;-65
2021/06/04 12:29:24;;;;;;;7.55;4.45;;;;;;;;;;5036510;28;20056;-66
2021/06/04 12:32:01;;;;;;;6.53;4.25;;;;;;;;;;5035513;28;20029;-65
2021/06/04 12:34:40;;;;;;;8.40;4.88;;;;;;;;;;5033913;28;20121;-65
2021/06/04 12:37:06;;;;;;;8.38;4.53;;;;;;;;;;5033778;28;20366;-66
2021/06/04 12:39:36;;;;;;;5.53;4.53;;;;;;;;;;5034063;28;20052;-66
2021/06/04 12:42:14;;;;;;;5.70;4.30;;;;;;;;;;5032753;28;20111;-64
2021/06/04 12:44:50;;;;;;;7.07;4.22;;;;;;;;;;5013481;28;20043;-66
2021/06/04 12:47:19;;;;;;;6.60;3.92;;;;;;;;;;5035204;28;20052;-66
2021/06/04 12:49:45;;;;;;;5.00;3.75;;;;;;;;;;5036404;28;20033;-65
2021/06/04 12:52:19;;;;;;;6.05;3.85;;;;;;;;;;5033891;28;20017;-65
2021/06/04 12:54:46;;;;;;;8.68;3.95;;;;;;;;;;5033012;28;20496;-65
2021/06/04 12:57:26;;;;;;;7.60;3.75;;;;;;;;;;5033019;28;20518;-66
2021/06/04 12:59:52;;;;;;;4.82;4.00;;;;;;;;;;5016466;28;20049;-66
2021/06/04 13:02:23;;;;;;;7.07;4.05;;;;;;;;;;5034298;28;20502;-64
2021/06/04 13:04:52;;;;;;;6.53;4.03;;;;;;;;;;5034862;28;20083;-66
2021/06/04 13:07:17;;;;;;;5.72;4.05;;;;;;;;;;5033264;28;20362;-66
2021/06/04 13:09:44;;;;;;;5.25;3.85;;;;;;;;;;5033674;28;20032;-66
2021/06/04 13:12:20;;;;;;;8.15;3.60;;;;;;;;;;5033123;28;20432;-66
2021/06/04 13:14:47;;;;;;;5.53;4.05;;;;;;;;;;5014937;28;20014;-66
2021/06/04 13:17:22;;;;;;;4.72;3.90;;;;;;;;;;5035094;28;20041;-66
2021/06/04 13:20:11;;;;;;;4.82;3.35;;;;;;;;;;5036797;28;20097;-66
2021/06/04 13:22:38;;;;;;;4.82;3.60;;;;;;;;;;5033952;28;20029;-64
2021/06/04 13:25:23;;;;;;;5.77;3.27;;;;;;;;;;5033041;28;20071;-64
2021/06/04 13:27:59;;;;;;;4.90;3.55;;;;;;;;;;5033285;28;20393;-64
2021/06/04 13:30:26;;;;;;;5.88;3.85;;;;;;;;;;5033162;28;20115;-64
2021/06/04 13:32:55;;;;;;;6.05;3.60;;;;;;;;;;5030545;28;20349;-64
2021/06/04 13:35:23;;;;;;;5.05;3.30;;;;;;;;;;5033615;28;20064;-64
2021/06/04 13:37:55;;;;;;;4.65;3.47;;;;;;;;;;5033639;28;20559;-64
2021/06/04 13:40:22;;;;;;;4.50;3.00;;;;;;;;;;5032939;28;20469;-66
2021/06/04 13:42:52;;;;;;;6.82;3.03;;;;;;;;;;5032258;28;20053;-64
2021/06/04 13:45:19;;;;;;;4.80;2.95;;;;;;;;;;5033024;28;20052;-64
2021/06/04 13:47:47;;;;;;;5.05;3.03;;;;;;;;;;5029040;28;20088;-66
2021/06/04 13:50:18;;;;;;;5.15;3.33;;;;;;;;;;5034444;28;20025;-66
2021/06/04 13:52:59;;;;;;;4.22;2.83;;;;;;;;;;5035473;28;20021;-63
2021/06/04 13:55:26;;;;;;;4.28;3.00;;;;;;;;;;5032579;28;20036;-66
2021/06/04 13:57:52;;;;;;;4.45;3.00;;;;;;;;;;5032494;28;20030;-64
2021/06/04 14:00:29;;;;;;;4.80;3.28;;;;;;;;;;5032186;28;20096;-64
2021/06/04 14:02:55;;;;;;;;;;;;;;;;;;5030593;28;20444;-64
2021/06/04 14:05:26;;;;;;;5.45;3.05;;;;;;;;;;5033024;28;19905;-66
2021/06/04 14:08:01;;;;;;;3.70;3.30;;;;;;;;;;5034064;28;20044;-66
2021/06/04 14:10:36;;;;;;;4.45;3.30;;;;;;;;;;5032691;28;20026;-64
2021/06/04 14:13:04;;;;;;;8.50;3.55;;;;;;;;;;5031761;28;20119;-65
2021/06/04 14:15:39;;;;;;;4.00;3.20;;;;;;;;;;5032678;28;20462;-66
2021/06/04 14:18:24;;;;;;;4.75;3.50;;;;;;;;;;5031401;28;20090;-64
2021/06/04 14:20:50;;;;;;;7.00;3.30;;;;;;;;;;5015145;28;20061;-66
2021/06/04 14:23:17;;;;;;;6.18;3.67;;;;;;;;;;5032858;28;20045;-64
2021/06/04 14:25:43;;;;;;;;;;;;;;;;;;5035265;28;20100;-64
2021/06/04 14:28:14;;;;;;;6.60;3.80;;;;;;;;;;5032341;28;19955;-66
2021/06/04 14:30:49;;;;;;;5.07;3.58;;;;;;;;;;5032499;28;20076;-66
2021/06/04 14:33:15;;;;;;;4.70;3.60;;;;;;;;;;5031315;28;20416;-64
2021/06/04 14:35:53;;;;;;;10.05;3.58;;;;;;;;;;5028290;28;20029;-64
2021/06/04 14:38:28;;;;;;;5.70;3.50;;;;;;;;;;5032459;28;20056;-64
2021/06/04 14:40:56;;;;;;;6.07;3.75;;;;;;;;;;5033534;28;20485;-64
2021/06/04 14:43:22;;;;;;;6.90;3.55;;;;;;;;;;5031720;28;20033;-66
2021/06/04 14:45:47;;;;;;;5.35;3.65;;;;;;;;;;5032332;28;20022;-64
2021/06/04 14:48:21;;;;;;;4.65;3.40;;;;;;;;;;5032239;28;20120;-64
2021/06/04 14:50:47;;;;;;;6.18;3.40;;;;;;;;;;5028434;28;20542;-64
2021/06/04 14:53:13;;;;;;;5.07;3.40;;;;;;;;;;5033719;28;20033;-64
2021/06/04 14:55:39;;;;;;;9.15;3.80;;;;;;;;;;5032710;28;20071;-65
2021/06/04 14:58:05;;;;;;;5.78;3.58;;;;;;;;;;5031909;28;20061;-64
2021/06/04 15:00:31;;;;;;;4.60;3.40;;;;;;;;;;5031389;28;20056;-65
2021/06/04 15:02:57;;;;;;;6.43;3.90;;;;;;;;;;5028901;28;20018;-62
2021/06/04 15:05:25;;;;;;;6.40;4.50;;;;;;;;;;5025966;28;20033;-62